Terminal Aerodrome Forecast
Issued by NWS Knoxville/Tri Cities, TN

Home | Current Version | Previous Version | Text Only | Print | Product List | Glossary On
Versions: 1 2 3 4 5 6 7 8 9 10 11 12 13 14 15 16 17 18 19 20 21 22 23 24 25 26 27 28 29 30 31 32 33 34 35 36 37 38 39 40 41 42 43 44 45 46 47 48 49 50
000
FTUS44 KMRX 071245 AAA
TAFTRI
TAF AMD
KTRI 071245Z 0713/0812 00000KT 4SM BR BKN015
      TEMPO 0713/0714 2SM BR SCT015
     FM071400 24006KT P6SM SCT030
     FM071800 24011KT P6SM SCT045 SCT080
     FM080100 24004KT P6SM FEW050 SCT150
     FM080600 00000KT 5SM BR BKN250
     FM080900 26003KT 4SM BR OVC100=

USA.gov is the U.S. government's official web portal to all federal, state and local government web resources and services.